createdAt,value
2023-02-03T00:03:14.956Z,101356.69
2023-02-03T00:08:18.499Z,101333.66
2023-02-03T00:13:19.868Z,101317.00
2023-02-03T00:18:21.268Z,101312.88
2023-02-03T00:23:22.641Z,101330.41
2023-02-03T00:28:24.399Z,101332.66
2023-02-03T00:33:25.767Z,101356.22
2023-02-03T00:38:28.199Z,101351.41
2023-02-03T00:43:29.649Z,101352.94
2023-02-03T00:48:31.042Z,101344.88
2023-02-03T00:53:32.788Z,101322.56
2023-02-03T00:58:34.110Z,101287.91
2023-02-03T01:03:35.459Z,101260.97
2023-02-03T01:08:36.812Z,101290.81
2023-02-03T01:13:38.868Z,101315.00
2023-02-03T01:18:41.224Z,101296.91
2023-02-03T01:23:43.569Z,101297.59
2023-02-03T01:28:50.243Z,101287.22
2023-02-03T01:33:54.098Z,101283.84
2023-02-03T01:38:55.524Z,101279.84
2023-02-03T01:43:59.400Z,101283.56
2023-02-03T01:49:14.175Z,101286.53
2023-02-03T01:54:20.730Z,101279.84
2023-02-03T01:59:24.486Z,101285.41
2023-02-03T02:04:31.972Z,101267.13
2023-02-03T02:09:33.347Z,101262.06
2023-02-03T02:14:34.688Z,101254.69
2023-02-03T02:19:51.407Z,101265.44
2023-02-03T02:25:30.504Z,101276.78
2023-02-03T02:31:06.237Z,101284.44
2023-02-03T02:36:29.267Z,101270.47
2023-02-03T02:41:46.838Z,101289.13
2023-02-03T02:46:53.483Z,101294.22
2023-02-03T02:51:56.786Z,101299.56
2023-02-03T02:57:02.616Z,101308.75
2023-02-03T03:02:03.987Z,101299.72
2023-02-03T03:07:16.604Z,101285.53
2023-02-03T03:12:48.989Z,101288.09
2023-02-03T03:18:04.744Z,101306.78
2023-02-03T03:23:09.980Z,101310.31
2023-02-03T03:28:26.471Z,101303.69
2023-02-03T03:33:27.932Z,101261.16
2023-02-03T03:38:37.494Z,101250.31
2023-02-03T03:43:42.856Z,101231.09
2023-02-03T03:48:55.717Z,101271.50
2023-02-03T03:54:01.889Z,101271.50
2023-02-03T03:59:07.058Z,101241.13
2023-02-03T04:04:10.868Z,101230.41
2023-02-03T04:09:12.239Z,101244.06
2023-02-03T04:14:13.551Z,101264.41
2023-02-03T04:19:14.911Z,101289.81
2023-02-03T04:24:16.521Z,101287.81
2023-02-03T04:29:17.833Z,101254.06
2023-02-03T04:34:19.147Z,101277.91
2023-02-03T04:39:20.484Z,101316.06
2023-02-03T04:44:21.781Z,101322.66
2023-02-03T04:49:23.088Z,101302.94
2023-02-03T04:54:24.396Z,101291.53
2023-02-03T04:59:25.786Z,101268.28
2023-02-03T05:04:27.135Z,101283.25
2023-02-03T05:09:28.531Z,101262.09
2023-02-03T05:14:29.847Z,101247.69
2023-02-03T05:19:31.151Z,101238.78
2023-02-03T05:24:32.450Z,101230.59
2023-02-03T05:29:33.866Z,101228.75
2023-02-03T05:34:35.232Z,101215.19
2023-02-03T05:39:36.627Z,101211.91
2023-02-03T05:44:37.952Z,101220.81
2023-02-03T05:49:39.415Z,101232.09
2023-02-03T05:54:40.729Z,101235.59
2023-02-03T05:59:42.087Z,101256.63
2023-02-03T06:04:43.427Z,101239.53
2023-02-03T06:09:45.092Z,101232.03
2023-02-03T06:14:46.446Z,101221.28
2023-02-03T06:19:47.774Z,101214.47
2023-02-03T06:24:49.273Z,101216.63
2023-02-03T06:29:50.627Z,101210.09
2023-02-03T06:34:51.922Z,101226.19
2023-02-03T06:39:53.239Z,101221.53
2023-02-03T06:44:55.038Z,101234.06
2023-02-03T06:49:56.409Z,101230.91
2023-02-03T06:54:57.749Z,101228.63
2023-02-03T06:59:59.293Z,101226.50
2023-02-03T07:05:00.953Z,101219.00
2023-02-03T07:10:02.836Z,101224.31
2023-02-03T07:15:05.025Z,101229.50
2023-02-03T07:20:06.950Z,101224.69
2023-02-03T07:25:08.307Z,101211.09
2023-02-03T07:30:10.396Z,101204.88
2023-02-03T07:35:11.892Z,101252.09
2023-02-03T07:40:14.999Z,101250.72
2023-02-03T07:45:17.792Z,101249.00
2023-02-03T07:50:19.247Z,101244.28
2023-02-03T07:55:20.549Z,101256.28
2023-02-03T08:00:22.162Z,101253.34
2023-02-03T08:05:23.517Z,101249.06
2023-02-03T08:10:25.204Z,101231.53
2023-02-03T08:15:26.618Z,101236.69
2023-02-03T08:20:28.276Z,101238.63
2023-02-03T08:25:29.843Z,101224.28
2023-02-03T08:30:31.811Z,101222.72
2023-02-03T08:35:33.576Z,101243.16
2023-02-03T08:40:34.886Z,101229.72
2023-02-03T08:45:36.227Z,101219.31
2023-02-03T08:50:37.620Z,101221.78
2023-02-03T08:55:40.112Z,101199.81
2023-02-03T09:00:41.876Z,101182.50
2023-02-03T09:05:43.314Z,101194.00
2023-02-03T09:10:44.659Z,101216.50
2023-02-03T09:15:46.019Z,101200.34
2023-02-03T09:20:47.345Z,101233.09
2023-02-03T09:25:49.602Z,101214.94
2023-02-03T09:30:51.008Z,101205.53
2023-02-03T09:35:56.935Z,101204.28
2023-02-03T09:41:11.964Z,101202.31
2023-02-03T09:46:21.652Z,101209.38
2023-02-03T09:51:29.183Z,101193.59
2023-02-03T09:56:32.393Z,101188.72
2023-02-03T10:01:41.503Z,101210.59
2023-02-03T10:06:47.083Z,101193.94
2023-02-03T10:12:13.345Z,101174.47
2023-02-03T10:17:33.302Z,101183.75
2023-02-03T10:22:40.729Z,101193.50
2023-02-03T10:27:43.653Z,101175.50
2023-02-03T10:32:45.052Z,101199.78
2023-02-03T10:37:53.191Z,101197.25
2023-02-03T10:43:13.513Z,101209.53
2023-02-03T10:48:17.797Z,101204.44
2023-02-03T10:53:32.487Z,101204.78
2023-02-03T10:58:34.831Z,101188.47
2023-02-03T11:03:36.558Z,101169.28
2023-02-03T11:08:40.804Z,101161.03
2023-02-03T11:13:42.197Z,101161.72
2023-02-03T11:18:53.227Z,101166.06
2023-02-03T11:23:57.808Z,101163.88
2023-02-03T11:29:01.881Z,101182.03
2023-02-03T11:34:16.613Z,101187.59
2023-02-03T11:39:25.934Z,101189.59
2023-02-03T11:44:33.787Z,101191.03
2023-02-03T11:49:47.137Z,101172.91
2023-02-03T11:55:08.739Z,101163.16
2023-02-03T12:00:37.688Z,101143.13
2023-02-03T12:06:07.034Z,101130.88
2023-02-03T12:11:14.357Z,101123.47
2023-02-03T12:16:51.272Z,101109.16
2023-02-03T12:22:23.254Z,101104.78
2023-02-03T12:28:01.654Z,101114.56
2023-02-03T12:33:12.478Z,101110.41
2023-02-03T12:38:40.404Z,101140.09
2023-02-03T12:43:52.899Z,101154.31
2023-02-03T12:49:09.408Z,101144.38
2023-02-03T12:54:50.516Z,101138.66
2023-02-03T13:00:19.136Z,101128.31
2023-02-03T13:05:28.370Z,101108.38
2023-02-03T13:10:39.703Z,101102.91
2023-02-03T13:15:45.518Z,101088.09
2023-02-03T13:20:46.986Z,101095.47
2023-02-03T13:26:06.539Z,101105.16
2023-02-03T13:31:22.027Z,101118.22
2023-02-03T13:36:40.012Z,101114.28
2023-02-03T13:41:53.796Z,101103.53
2023-02-03T13:46:57.559Z,101109.38
2023-02-03T13:51:59.386Z,101102.47
2023-02-03T13:57:03.673Z,101083.00
2023-02-03T14:02:23.355Z,101090.78
2023-02-03T14:07:34.780Z,101110.03
2023-02-03T14:12:38.449Z,101120.31
2023-02-03T14:17:42.733Z,101117.75
2023-02-03T14:22:44.220Z,101128.03
2023-02-03T14:27:45.816Z,101130.38
2023-02-03T14:32:54.019Z,101136.81
2023-02-03T14:38:08.865Z,101128.41
2023-02-03T14:43:29.096Z,101125.84
2023-02-03T14:48:39.457Z,101112.38
2023-02-03T14:54:06.287Z,101119.81
2023-02-03T14:59:10.666Z,101138.53
2023-02-03T15:04:11.937Z,101160.59
2023-02-03T15:09:30.081Z,101159.91
2023-02-03T15:14:31.653Z,101161.81
2023-02-03T15:19:39.549Z,101169.09
2023-02-03T15:24:40.947Z,101174.78
2023-02-03T15:29:42.302Z,101180.84
2023-02-03T15:34:48.720Z,101190.38
2023-02-03T15:40:05.133Z,101187.97
2023-02-03T15:45:20.383Z,101173.16
2023-02-03T15:50:30.916Z,101176.16
2023-02-03T15:55:48.077Z,101191.69
2023-02-03T16:00:53.553Z,101185.97
2023-02-03T16:05:55.152Z,101173.03
2023-02-03T16:10:56.637Z,101178.91
2023-02-03T16:16:05.707Z,101185.31
2023-02-03T16:21:29.304Z,101204.88
2023-02-03T16:26:32.473Z,101200.47
2023-02-03T16:32:02.204Z,101192.41
2023-02-03T16:37:39.016Z,101210.28
2023-02-03T16:42:59.254Z,101206.16
2023-02-03T16:48:19.547Z,101219.44
2023-02-03T16:53:30.089Z,101213.06
2023-02-03T16:58:31.971Z,101211.06
2023-02-03T17:03:35.024Z,101206.53
2023-02-03T17:08:40.246Z,101216.75
2023-02-03T17:13:42.607Z,101221.31
2023-02-03T17:18:45.739Z,101226.88
2023-02-03T17:23:47.540Z,101244.09
2023-02-03T17:28:48.926Z,101250.84
2023-02-03T17:33:51.736Z,101245.97
2023-02-03T17:54:55.128Z,101286.41
2023-02-03T17:59:59.214Z,101281.81
2023-02-03T18:05:00.557Z,101287.72
2023-02-03T18:10:01.906Z,101275.75
2023-02-03T18:15:03.697Z,101284.00
2023-02-03T18:20:05.363Z,101275.94
2023-02-03T18:25:06.870Z,101270.94
2023-02-03T18:30:11.154Z,101289.72
2023-02-03T18:35:16.656Z,101295.53
2023-02-03T18:40:18.189Z,101302.47
2023-02-03T18:45:19.565Z,101311.22
2023-02-03T18:50:21.328Z,101317.44
2023-02-03T18:55:23.303Z,101333.91
2023-02-03T19:00:24.953Z,101348.81
2023-02-03T19:05:26.285Z,101354.41
2023-02-03T19:10:28.137Z,101353.09
2023-02-03T19:15:29.733Z,101345.78
2023-02-03T19:20:31.396Z,101361.22
2023-02-03T19:25:32.842Z,101369.97
2023-02-03T19:30:35.448Z,101367.28
2023-02-03T19:35:36.882Z,101358.56
2023-02-03T19:40:38.200Z,101384.28
2023-02-03T19:45:39.635Z,101381.63
2023-02-03T19:50:45.667Z,101396.41
2023-02-03T19:55:47.027Z,101404.53
2023-02-03T20:00:48.415Z,101418.63
2023-02-03T20:05:52.912Z,101430.75
2023-02-03T20:10:54.402Z,101419.38
2023-02-03T20:15:55.859Z,101427.09
2023-02-03T20:20:57.280Z,101415.00
2023-02-03T20:25:59.888Z,101425.50
2023-02-03T20:31:01.994Z,101427.50
2023-02-03T20:36:03.873Z,101425.31
2023-02-03T20:41:10.295Z,101435.31
2023-02-03T20:46:17.726Z,101427.16
2023-02-03T20:51:20.979Z,101438.91
2023-02-03T20:56:22.787Z,101426.56
2023-02-03T21:01:24.452Z,101446.63
2023-02-03T21:06:27.820Z,101439.59
2023-02-03T21:11:30.378Z,101437.47
2023-02-03T21:16:36.402Z,101443.22
2023-02-03T21:21:42.024Z,101451.00
2023-02-03T21:26:43.340Z,101451.50
2023-02-03T21:31:44.836Z,101466.09
2023-02-03T21:36:46.599Z,101474.00
2023-02-03T21:41:47.943Z,101474.69
2023-02-03T21:46:49.316Z,101475.44
2023-02-03T21:51:50.655Z,101499.50
2023-02-03T21:56:53.876Z,101504.19
2023-02-03T22:01:58.401Z,101497.53
2023-02-03T22:06:59.766Z,101502.94
2023-02-03T22:12:01.450Z,101517.50
2023-02-03T22:17:02.804Z,101510.22
2023-02-03T22:22:04.136Z,101521.53
2023-02-03T22:27:06.279Z,101550.25
2023-02-03T22:32:07.622Z,101547.38
2023-02-03T22:37:08.944Z,101568.88
2023-02-03T22:42:10.570Z,101568.75
2023-02-03T22:47:11.918Z,101578.94
2023-02-03T22:52:13.305Z,101602.28
2023-02-03T22:57:14.592Z,101594.66
2023-02-03T23:02:16.705Z,101601.72
2023-02-03T23:07:18.675Z,101588.28
2023-02-03T23:12:19.982Z,101603.97
2023-02-03T23:17:21.288Z,101600.88
2023-02-03T23:22:22.808Z,101600.88
2023-02-03T23:27:24.145Z,101623.22
2023-02-03T23:32:25.505Z,101622.38
2023-02-03T23:37:26.846Z,101630.84
2023-02-03T23:42:28.204Z,101639.91
2023-02-03T23:47:29.498Z,101650.38
2023-02-03T23:52:35.681Z,101648.28
2023-02-03T23:57:37.516Z,101648.28
